Sparks, Nebraska
Current Conditions -  °F | °C
As of 9:52 PM on Wednesday 17 Dec 2014 (Local Time) from KVTN Reporting Station
Overcast Overcast  
Wind Chill: 11°   Ceiling: 700
Heat Index: 22°   Visibility: 8mi
Dew Point: 20°   Wind: 10mph
Humidity: 92%   Direction: 170°S
Pressure: 30.1"   Gusts: NA
Location:  42.94°N, 100.26°W
Report Text: KVTN 180352Z AUTO 17009KT 8SM OVC007 M06/M07 A3010 RMK AO2 SLP232 T10561067
Loading
Personal Weather Stations






























Interactive Weather Map New forecast layout! Learn more

10-Day Weather Forecast

Advertisements
Track Severe Weather on mobile